sensor_id;sensor_type;location;lat;lon;timestamp;temperature;humidity
65207;SHT31;58477;48.072;11.970;2023-04-03T00:00:59;0.83;97.00
65207;SHT31;58477;48.072;11.970;2023-04-03T00:03:25;0.80;96.81
65207;SHT31;58477;48.072;11.970;2023-04-03T00:05:51;0.75;97.35
65207;SHT31;58477;48.072;11.970;2023-04-03T00:08:16;0.83;97.40
65207;SHT31;58477;48.072;11.970;2023-04-03T00:10:42;0.96;97.15
65207;SHT31;58477;48.072;11.970;2023-04-03T00:13:07;0.97;97.18
65207;SHT31;58477;48.072;11.970;2023-04-03T00:15:35;0.86;97.42
65207;SHT31;58477;48.072;11.970;2023-04-03T00:18:00;0.92;97.23
65207;SHT31;58477;48.072;11.970;2023-04-03T00:20:26;0.95;96.68
65207;SHT31;58477;48.072;11.970;2023-04-03T00:22:53;1.02;97.13
65207;SHT31;58477;48.072;11.970;2023-04-03T00:25:18;1.06;97.06
65207;SHT31;58477;48.072;11.970;2023-04-03T00:27:44;1.06;96.98
65207;SHT31;58477;48.072;11.970;2023-04-03T00:30:12;1.00;96.85
65207;SHT31;58477;48.072;11.970;2023-04-03T00:32:38;1.13;96.60
65207;SHT31;58477;48.072;11.970;2023-04-03T00:35:04;1.20;96.28
65207;SHT31;58477;48.072;11.970;2023-04-03T00:37:29;1.20;95.97
65207;SHT31;58477;48.072;11.970;2023-04-03T00:39:56;1.17;95.87
65207;SHT31;58477;48.072;11.970;2023-04-03T00:42:21;1.16;95.73
65207;SHT31;58477;48.072;11.970;2023-04-03T00:47:16;1.40;95.29
65207;SHT31;58477;48.072;11.970;2023-04-03T00:49:42;1.33;95.08
65207;SHT31;58477;48.072;11.970;2023-04-03T00:52:11;1.54;94.66
65207;SHT31;58477;48.072;11.970;2023-04-03T00:54:38;1.57;94.27
65207;SHT31;58477;48.072;11.970;2023-04-03T00:57:06;1.47;95.00
65207;SHT31;58477;48.072;11.970;2023-04-03T00:59:36;1.65;94.43
65207;SHT31;58477;48.072;11.970;2023-04-03T01:02:04;1.68;94.03
65207;SHT31;58477;48.072;11.970;2023-04-03T01:04:38;1.61;93.39
65207;SHT31;58477;48.072;11.970;2023-04-03T01:07:14;1.46;94.64
65207;SHT31;58477;48.072;11.970;2023-04-03T01:09:40;1.51;94.73
65207;SHT31;58477;48.072;11.970;2023-04-03T01:12:21;1.48;94.97
65207;SHT31;58477;48.072;11.970;2023-04-03T01:14:52;1.50;94.65
65207;SHT31;58477;48.072;11.970;2023-04-03T01:17:39;1.42;95.06
65207;SHT31;58477;48.072;11.970;2023-04-03T01:25:37;1.60;94.73
65207;SHT31;58477;48.072;11.970;2023-04-03T01:28:05;1.63;94.46
65207;SHT31;58477;48.072;11.970;2023-04-03T01:30:34;1.68;94.49
65207;SHT31;58477;48.072;11.970;2023-04-03T01:33:00;1.60;95.02
65207;SHT31;58477;48.072;11.970;2023-04-03T01:35:26;1.60;94.95
65207;SHT31;58477;48.072;11.970;2023-04-03T01:37:52;1.65;94.45
65207;SHT31;58477;48.072;11.970;2023-04-03T01:40:18;1.67;93.98
65207;SHT31;58477;48.072;11.970;2023-04-03T01:42:45;1.71;94.22
65207;SHT31;58477;48.072;11.970;2023-04-03T01:45:11;1.82;93.52
65207;SHT31;58477;48.072;11.970;2023-04-03T01:47:37;1.77;93.14
65207;SHT31;58477;48.072;11.970;2023-04-03T01:50:02;1.68;94.36
65207;SHT31;58477;48.072;11.970;2023-04-03T01:52:31;1.70;93.89
65207;SHT31;58477;48.072;11.970;2023-04-03T01:54:56;1.74;93.87
65207;SHT31;58477;48.072;11.970;2023-04-03T01:57:22;1.53;94.42
65207;SHT31;58477;48.072;11.970;2023-04-03T01:59:48;1.47;94.08
65207;SHT31;58477;48.072;11.970;2023-04-03T02:02:13;1.55;94.21
65207;SHT31;58477;48.072;11.970;2023-04-03T02:04:40;1.60;93.71
65207;SHT31;58477;48.072;11.970;2023-04-03T02:07:06;1.54;94.14
65207;SHT31;58477;48.072;11.970;2023-04-03T02:09:32;1.64;94.40
65207;SHT31;58477;48.072;11.970;2023-04-03T02:11:57;1.77;93.99
65207;SHT31;58477;48.072;11.970;2023-04-03T02:14:23;1.77;93.95
65207;SHT31;58477;48.072;11.970;2023-04-03T02:16:49;1.54;94.89
65207;SHT31;58477;48.072;11.970;2023-04-03T02:19:15;1.60;94.41
65207;SHT31;58477;48.072;11.970;2023-04-03T02:21:41;1.60;93.56
65207;SHT31;58477;48.072;11.970;2023-04-03T02:24:07;1.50;93.18
65207;SHT31;58477;48.072;11.970;2023-04-03T02:26:33;1.55;94.09
65207;SHT31;58477;48.072;11.970;2023-04-03T02:28:58;1.51;93.97
65207;SHT31;58477;48.072;11.970;2023-04-03T02:31:24;1.55;93.49
65207;SHT31;58477;48.072;11.970;2023-04-03T02:33:50;1.60;92.73
65207;SHT31;58477;48.072;11.970;2023-04-03T02:36:17;1.54;94.05
65207;SHT31;58477;48.072;11.970;2023-04-03T02:38:47;1.68;92.61
65207;SHT31;58477;48.072;11.970;2023-04-03T02:41:13;1.54;92.37
65207;SHT31;58477;48.072;11.970;2023-04-03T02:43:39;1.42;92.69
65207;SHT31;58477;48.072;11.970;2023-04-03T02:46:05;1.63;92.17
65207;SHT31;58477;48.072;11.970;2023-04-03T02:48:31;1.68;91.65
65207;SHT31;58477;48.072;11.970;2023-04-03T02:50:57;1.65;92.91
65207;SHT31;58477;48.072;11.970;2023-04-03T02:53:22;1.46;93.55
65207;SHT31;58477;48.072;11.970;2023-04-03T02:55:49;1.63;93.19
65207;SHT31;58477;48.072;11.970;2023-04-03T02:58:15;1.65;92.97
65207;SHT31;58477;48.072;11.970;2023-04-03T03:00:40;1.50;92.79
65207;SHT31;58477;48.072;11.970;2023-04-03T03:03:06;1.51;92.67
65207;SHT31;58477;48.072;11.970;2023-04-03T03:05:31;1.39;93.64
65207;SHT31;58477;48.072;11.970;2023-04-03T03:07:57;1.57;92.55
65207;SHT31;58477;48.072;11.970;2023-04-03T03:10:22;1.55;92.72
65207;SHT31;58477;48.072;11.970;2023-04-03T03:12:48;1.53;93.60
65207;SHT31;58477;48.072;11.970;2023-04-03T03:15:14;1.51;93.54
65207;SHT31;58477;48.072;11.970;2023-04-03T03:17:40;1.42;93.80
65207;SHT31;58477;48.072;11.970;2023-04-03T03:20:07;1.34;94.67
65207;SHT31;58477;48.072;11.970;2023-04-03T03:22:34;1.42;94.43
65207;SHT31;58477;48.072;11.970;2023-04-03T03:25:00;1.60;94.16
65207;SHT31;58477;48.072;11.970;2023-04-03T03:27:26;1.67;93.32
65207;SHT31;58477;48.072;11.970;2023-04-03T03:29:52;1.57;92.77
65207;SHT31;58477;48.072;11.970;2023-04-03T03:32:17;1.55;93.02
65207;SHT31;58477;48.072;11.970;2023-04-03T03:34:43;1.68;91.95
65207;SHT31;58477;48.072;11.970;2023-04-03T03:37:08;1.75;92.55
65207;SHT31;58477;48.072;11.970;2023-04-03T03:39:34;1.46;93.41
65207;SHT31;58477;48.072;11.970;2023-04-03T03:41:59;1.30;93.98
65207;SHT31;58477;48.072;11.970;2023-04-03T03:44:25;1.51;93.89
65207;SHT31;58477;48.072;11.970;2023-04-03T03:46:52;1.46;93.60
65207;SHT31;58477;48.072;11.970;2023-04-03T03:49:17;1.61;93.51
65207;SHT31;58477;48.072;11.970;2023-04-03T03:51:43;1.74;92.35
65207;SHT31;58477;48.072;11.970;2023-04-03T03:54:09;1.68;92.94
65207;SHT31;58477;48.072;11.970;2023-04-03T03:56:35;1.64;92.42
65207;SHT31;58477;48.072;11.970;2023-04-03T03:59:01;1.51;93.28
65207;SHT31;58477;48.072;11.970;2023-04-03T04:01:26;1.64;92.46
65207;SHT31;58477;48.072;11.970;2023-04-03T04:03:52;1.64;93.03
65207;SHT31;58477;48.072;11.970;2023-04-03T04:06:22;1.68;92.62
65207;SHT31;58477;48.072;11.970;2023-04-03T04:08:49;1.74;91.94
65207;SHT31;58477;48.072;11.970;2023-04-03T04:11:15;1.82;91.48
65207;SHT31;58477;48.072;11.970;2023-04-03T04:13:41;1.70;91.58
65207;SHT31;58477;48.072;11.970;2023-04-03T04:16:09;1.65;92.18
65207;SHT31;58477;48.072;11.970;2023-04-03T04:18:35;1.54;92.02
65207;SHT31;58477;48.072;11.970;2023-04-03T04:21:00;1.53;92.79
65207;SHT31;58477;48.072;11.970;2023-04-03T04:23:26;1.65;91.74
65207;SHT31;58477;48.072;11.970;2023-04-03T04:25:52;1.60;91.51
65207;SHT31;58477;48.072;11.970;2023-04-03T04:28:19;1.64;91.53
65207;SHT31;58477;48.072;11.970;2023-04-03T04:30:47;1.51;91.97
65207;SHT31;58477;48.072;11.970;2023-04-03T04:33:14;1.55;91.57
65207;SHT31;58477;48.072;11.970;2023-04-03T04:35:42;1.71;91.15
65207;SHT31;58477;48.072;11.970;2023-04-03T04:38:08;1.43;91.44
65207;SHT31;58477;48.072;11.970;2023-04-03T04:40:35;1.50;91.51
65207;SHT31;58477;48.072;11.970;2023-04-03T04:43:01;1.65;91.02
65207;SHT31;58477;48.072;11.970;2023-04-03T04:45:26;1.61;91.36
65207;SHT31;58477;48.072;11.970;2023-04-03T04:47:55;1.50;90.63
65207;SHT31;58477;48.072;11.970;2023-04-03T04:50:23;1.51;91.31
65207;SHT31;58477;48.072;11.970;2023-04-03T04:52:49;1.44;91.33
65207;SHT31;58477;48.072;11.970;2023-04-03T04:55:14;1.36;91.15
65207;SHT31;58477;48.072;11.970;2023-04-03T04:57:40;1.40;91.71
65207;SHT31;58477;48.072;11.970;2023-04-03T05:00:07;1.23;92.81
65207;SHT31;58477;48.072;11.970;2023-04-03T05:02:32;1.27;92.82
65207;SHT31;58477;48.072;11.970;2023-04-03T05:04:58;1.40;92.16
65207;SHT31;58477;48.072;11.970;2023-04-03T05:07:27;1.46;91.88
65207;SHT31;58477;48.072;11.970;2023-04-03T05:09:53;1.55;91.52
65207;SHT31;58477;48.072;11.970;2023-04-03T05:12:19;1.54;91.31
65207;SHT31;58477;48.072;11.970;2023-04-03T05:14:51;1.67;91.57
65207;SHT31;58477;48.072;11.970;2023-04-03T05:17:17;1.61;90.96
65207;SHT31;58477;48.072;11.970;2023-04-03T05:19:48;1.61;90.96
65207;SHT31;58477;48.072;11.970;2023-04-03T05:22:14;1.42;91.43
65207;SHT31;58477;48.072;11.970;2023-04-03T05:24:40;1.50;91.45
65207;SHT31;58477;48.072;11.970;2023-04-03T05:27:06;1.58;90.64
65207;SHT31;58477;48.072;11.970;2023-04-03T05:29:36;1.65;91.15
65207;SHT31;58477;48.072;11.970;2023-04-03T05:32:03;1.42;90.60
65207;SHT31;58477;48.072;11.970;2023-04-03T05:34:29;1.53;90.12
65207;SHT31;58477;48.072;11.970;2023-04-03T05:36:55;1.60;89.87
65207;SHT31;58477;48.072;11.970;2023-04-03T05:39:21;1.63;89.64
65207;SHT31;58477;48.072;11.970;2023-04-03T05:41:47;1.67;89.75
65207;SHT31;58477;48.072;11.970;2023-04-03T05:44:13;1.68;89.91
65207;SHT31;58477;48.072;11.970;2023-04-03T05:46:40;1.68;89.10
65207;SHT31;58477;48.072;11.970;2023-04-03T05:49:08;1.75;89.86
65207;SHT31;58477;48.072;11.970;2023-04-03T05:51:39;1.70;89.70
65207;SHT31;58477;48.072;11.970;2023-04-03T05:54:22;1.79;89.58
65207;SHT31;58477;48.072;11.970;2023-04-03T05:56:50;1.67;89.66
65207;SHT31;58477;48.072;11.970;2023-04-03T05:59:18;1.81;89.40
65207;SHT31;58477;48.072;11.970;2023-04-03T06:01:44;1.85;89.10
65207;SHT31;58477;48.072;11.970;2023-04-03T06:04:10;1.85;89.03
65207;SHT31;58477;48.072;11.970;2023-04-03T06:07:03;1.68;88.71
65207;SHT31;58477;48.072;11.970;2023-04-03T06:09:29;1.75;89.51
65207;SHT31;58477;48.072;11.970;2023-04-03T06:11:55;1.61;90.60
65207;SHT31;58477;48.072;11.970;2023-04-03T06:14:22;1.70;90.29
65207;SHT31;58477;48.072;11.970;2023-04-03T06:16:48;1.88;90.35
65207;SHT31;58477;48.072;11.970;2023-04-03T06:19:13;1.71;90.29
65207;SHT31;58477;48.072;11.970;2023-04-03T06:21:44;1.70;91.19
65207;SHT31;58477;48.072;11.970;2023-04-03T06:24:12;1.95;89.70
65207;SHT31;58477;48.072;11.970;2023-04-03T06:26:38;1.89;89.25
65207;SHT31;58477;48.072;11.970;2023-04-03T06:29:04;1.88;89.93
65207;SHT31;58477;48.072;11.970;2023-04-03T06:31:29;2.08;89.74
65207;SHT31;58477;48.072;11.970;2023-04-03T06:33:55;2.18;89.13
65207;SHT31;58477;48.072;11.970;2023-04-03T06:36:21;2.22;88.52
65207;SHT31;58477;48.072;11.970;2023-04-03T06:38:47;2.04;89.56
65207;SHT31;58477;48.072;11.970;2023-04-03T06:41:13;2.18;89.28
65207;SHT31;58477;48.072;11.970;2023-04-03T06:43:39;2.18;88.34
65207;SHT31;58477;48.072;11.970;2023-04-03T06:46:04;2.24;88.25
65207;SHT31;58477;48.072;11.970;2023-04-03T06:48:30;2.33;87.89
65207;SHT31;58477;48.072;11.970;2023-04-03T06:50:56;2.32;87.50
65207;SHT31;58477;48.072;11.970;2023-04-03T06:53:21;2.36;88.52
65207;SHT31;58477;48.072;11.970;2023-04-03T06:55:47;2.54;87.93
65207;SHT31;58477;48.072;11.970;2023-04-03T06:58:13;2.49;87.42
65207;SHT31;58477;48.072;11.970;2023-04-03T07:00:40;2.38;87.71
65207;SHT31;58477;48.072;11.970;2023-04-03T07:03:06;2.49;87.72
65207;SHT31;58477;48.072;11.970;2023-04-03T07:05:31;2.33;88.10
65207;SHT31;58477;48.072;11.970;2023-04-03T07:07:57;2.56;87.52
65207;SHT31;58477;48.072;11.970;2023-04-03T07:10:23;2.56;87.63
65207;SHT31;58477;48.072;11.970;2023-04-03T07:12:48;2.43;88.25
65207;SHT31;58477;48.072;11.970;2023-04-03T07:15:14;2.53;88.54
65207;SHT31;58477;48.072;11.970;2023-04-03T07:17:39;2.71;87.82
65207;SHT31;58477;48.072;11.970;2023-04-03T07:20:05;2.69;86.49
65207;SHT31;58477;48.072;11.970;2023-04-03T07:22:31;2.64;87.32
65207;SHT31;58477;48.072;11.970;2023-04-03T07:24:56;2.76;86.87
65207;SHT31;58477;48.072;11.970;2023-04-03T07:27:24;2.82;87.19
65207;SHT31;58477;48.072;11.970;2023-04-03T07:29:50;2.76;86.85
65207;SHT31;58477;48.072;11.970;2023-04-03T07:32:16;2.56;87.47
65207;SHT31;58477;48.072;11.970;2023-04-03T07:34:41;2.71;86.77
65207;SHT31;58477;48.072;11.970;2023-04-03T07:37:07;2.72;87.08
65207;SHT31;58477;48.072;11.970;2023-04-03T07:39:34;2.64;86.73
65207;SHT31;58477;48.072;11.970;2023-04-03T07:42:00;2.56;87.78
65207;SHT31;58477;48.072;11.970;2023-04-03T07:44:25;2.72;87.02
65207;SHT31;58477;48.072;11.970;2023-04-03T07:46:51;2.89;87.67
65207;SHT31;58477;48.072;11.970;2023-04-03T07:49:17;2.80;86.05
65207;SHT31;58477;48.072;11.970;2023-04-03T07:51:48;2.79;86.90
65207;SHT31;58477;48.072;11.970;2023-04-03T07:54:14;2.72;87.56
65207;SHT31;58477;48.072;11.970;2023-04-03T07:56:40;2.93;86.54
65207;SHT31;58477;48.072;11.970;2023-04-03T07:59:06;2.92;86.65
65207;SHT31;58477;48.072;11.970;2023-04-03T08:01:31;3.14;86.05
65207;SHT31;58477;48.072;11.970;2023-04-03T08:03:58;3.34;85.49
65207;SHT31;58477;48.072;11.970;2023-04-03T08:06:24;3.40;85.67
65207;SHT31;58477;48.072;11.970;2023-04-03T08:08:50;3.41;85.27
65207;SHT31;58477;48.072;11.970;2023-04-03T08:11:15;3.08;84.78
65207;SHT31;58477;48.072;11.970;2023-04-03T08:13:41;3.23;84.51
65207;SHT31;58477;48.072;11.970;2023-04-03T08:16:09;3.34;85.39
65207;SHT31;58477;48.072;11.970;2023-04-03T08:18:35;3.64;85.28
65207;SHT31;58477;48.072;11.970;2023-04-03T08:21:00;3.58;84.07
65207;SHT31;58477;48.072;11.970;2023-04-03T08:23:25;3.58;83.83
65207;SHT31;58477;48.072;11.970;2023-04-03T08:25:51;3.68;83.77
65207;SHT31;58477;48.072;11.970;2023-04-03T08:28:17;3.44;84.42
65207;SHT31;58477;48.072;11.970;2023-04-03T08:30:42;3.61;84.56
65207;SHT31;58477;48.072;11.970;2023-04-03T08:33:08;3.81;85.31
65207;SHT31;58477;48.072;11.970;2023-04-03T08:35:38;3.82;83.15
65207;SHT31;58477;48.072;11.970;2023-04-03T08:38:04;3.88;83.20
65207;SHT31;58477;48.072;11.970;2023-04-03T08:40:29;3.85;83.56
65207;SHT31;58477;48.072;11.970;2023-04-03T08:45:49;4.39;82.31
65207;SHT31;58477;48.072;11.970;2023-04-03T08:48:20;4.07;83.72
65207;SHT31;58477;48.072;11.970;2023-04-03T08:50:52;4.39;83.31
65207;SHT31;58477;48.072;11.970;2023-04-03T08:53:21;4.45;82.29
65207;SHT31;58477;48.072;11.970;2023-04-03T08:55:49;4.43;82.54
65207;SHT31;58477;48.072;11.970;2023-04-03T08:58:21;4.39;80.98
65207;SHT31;58477;48.072;11.970;2023-04-03T09:00:59;4.32;82.19
65207;SHT31;58477;48.072;11.970;2023-04-03T09:03:32;4.39;82.51
65207;SHT31;58477;48.072;11.970;2023-04-03T09:06:06;4.42;82.94
65207;SHT31;58477;48.072;11.970;2023-04-03T09:09:00;4.13;84.16
65207;SHT31;58477;48.072;11.970;2023-04-03T09:11:41;4.37;82.39
65207;SHT31;58477;48.072;11.970;2023-04-03T09:14:39;4.16;83.13
65207;SHT31;58477;48.072;11.970;2023-04-03T09:17:16;3.96;82.85
65207;SHT31;58477;48.072;11.970;2023-04-03T09:22:24;4.23;83.60
65207;SHT31;58477;48.072;11.970;2023-04-03T09:25:17;4.16;82.81
65207;SHT31;58477;48.072;11.970;2023-04-03T09:27:44;4.28;80.51
65207;SHT31;58477;48.072;11.970;2023-04-03T09:30:14;4.26;81.42
65207;SHT31;58477;48.072;11.970;2023-04-03T09:32:40;3.96;80.73
65207;SHT31;58477;48.072;11.970;2023-04-03T09:37:41;4.05;81.55
65207;SHT31;58477;48.072;11.970;2023-04-03T09:40:31;3.77;81.16
65207;SHT31;58477;48.072;11.970;2023-04-03T09:42:59;3.41;83.41
65207;SHT31;58477;48.072;11.970;2023-04-03T09:45:31;3.32;82.43
65207;SHT31;58477;48.072;11.970;2023-04-03T09:48:30;3.27;83.03
65207;SHT31;58477;48.072;11.970;2023-04-03T09:50:58;3.17;83.37
65207;SHT31;58477;48.072;11.970;2023-04-03T09:53:39;3.51;83.89
65207;SHT31;58477;48.072;11.970;2023-04-03T10:01:41;4.03;82.88
65207;SHT31;58477;48.072;11.970;2023-04-03T10:04:20;4.22;82.28
65207;SHT31;58477;48.072;11.970;2023-04-03T10:06:56;3.91;82.24
65207;SHT31;58477;48.072;11.970;2023-04-03T10:09:27;4.17;82.60
65207;SHT31;58477;48.072;11.970;2023-04-03T10:12:03;4.03;80.58
65207;SHT31;58477;48.072;11.970;2023-04-03T10:14:34;3.72;81.28
65207;SHT31;58477;48.072;11.970;2023-04-03T10:17:28;3.67;80.99
65207;SHT31;58477;48.072;11.970;2023-04-03T10:20:23;3.38;82.48
65207;SHT31;58477;48.072;11.970;2023-04-03T10:31:37;3.14;84.61
65207;SHT31;58477;48.072;11.970;2023-04-03T10:34:21;2.90;85.70
65207;SHT31;58477;48.072;11.970;2023-04-03T10:47:31;2.87;87.05
65207;SHT31;58477;48.072;11.970;2023-04-03T10:50:05;2.93;86.71
65207;SHT31;58477;48.072;11.970;2023-04-03T10:52:49;3.14;86.46
65207;SHT31;58477;48.072;11.970;2023-04-03T10:55:38;3.44;86.03
65207;SHT31;58477;48.072;11.970;2023-04-03T10:58:09;3.54;85.43
65207;SHT31;58477;48.072;11.970;2023-04-03T11:00:40;3.83;84.54
65207;SHT31;58477;48.072;11.970;2023-04-03T11:03:12;3.85;85.04
65207;SHT31;58477;48.072;11.970;2023-04-03T11:05:45;3.57;85.77
65207;SHT31;58477;48.072;11.970;2023-04-03T11:08:43;3.27;86.52
65207;SHT31;58477;48.072;11.970;2023-04-03T11:11:14;3.17;87.73
65207;SHT31;58477;48.072;11.970;2023-04-03T11:14:20;3.24;87.39
65207;SHT31;58477;48.072;11.970;2023-04-03T11:16:50;3.34;85.89
65207;SHT31;58477;48.072;11.970;2023-04-03T11:19:22;3.60;85.70
65207;SHT31;58477;48.072;11.970;2023-04-03T11:27:57;3.13;86.01
65207;SHT31;58477;48.072;11.970;2023-04-03T11:33:05;1.57;86.45
65207;SHT31;58477;48.072;11.970;2023-04-03T11:35:34;1.71;85.62
65207;SHT31;58477;48.072;11.970;2023-04-03T11:38:02;1.84;86.31
65207;SHT31;58477;48.072;11.970;2023-04-03T11:40:36;1.89;86.68
65207;SHT31;58477;48.072;11.970;2023-04-03T11:43:16;2.04;86.77
65207;SHT31;58477;48.072;11.970;2023-04-03T11:50:47;2.48;85.83
65207;SHT31;58477;48.072;11.970;2023-04-03T11:58:18;3.13;85.02
65207;SHT31;58477;48.072;11.970;2023-04-03T12:40:25;4.36;78.97
65207;SHT31;58477;48.072;11.970;2023-04-03T12:43:05;4.59;79.13
65207;SHT31;58477;48.072;11.970;2023-04-03T12:46:32;4.19;76.43
65207;SHT31;58477;48.072;11.970;2023-04-03T12:48:49;4.32;77.88
65207;SHT31;58477;48.072;11.970;2023-04-03T12:51:37;4.33;76.51
65207;SHT31;58477;48.072;11.970;2023-04-03T12:56:40;4.85;73.65
65207;SHT31;58477;48.072;11.970;2023-04-03T12:59:25;5.01;77.04
65207;SHT31;58477;48.072;11.970;2023-04-03T13:02:00;4.80;73.43
65207;SHT31;58477;48.072;11.970;2023-04-03T13:04:31;4.59;73.95
65207;SHT31;58477;48.072;11.970;2023-04-03T13:06:57;5.01;70.85
65207;SHT31;58477;48.072;11.970;2023-04-03T13:09:29;6.00;71.10
65207;SHT31;58477;48.072;11.970;2023-04-03T13:12:00;5.90;69.77
65207;SHT31;58477;48.072;11.970;2023-04-03T13:14:28;6.45;68.88
65207;SHT31;58477;48.072;11.970;2023-04-03T13:16:59;6.41;66.95
65207;SHT31;58477;48.072;11.970;2023-04-03T13:19:27;7.16;65.48
65207;SHT31;58477;48.072;11.970;2023-04-03T13:22:01;7.53;65.53
65207;SHT31;58477;48.072;11.970;2023-04-03T13:24:29;7.19;66.01
65207;SHT31;58477;48.072;11.970;2023-04-03T13:26:55;6.34;66.65
65207;SHT31;58477;48.072;11.970;2023-04-03T13:29:30;6.21;68.36
65207;SHT31;58477;48.072;11.970;2023-04-03T13:31:57;5.45;68.42
65207;SHT31;58477;48.072;11.970;2023-04-03T13:34:25;5.22;69.91
65207;SHT31;58477;48.072;11.970;2023-04-03T13:41:55;5.08;67.81
65207;SHT31;58477;48.072;11.970;2023-04-03T13:46:50;5.30;67.99
65207;SHT31;58477;48.072;11.970;2023-04-03T13:49:38;5.39;68.47
65207;SHT31;58477;48.072;11.970;2023-04-03T13:52:30;5.32;68.08
65207;SHT31;58477;48.072;11.970;2023-04-03T13:55:11;5.05;68.96
65207;SHT31;58477;48.072;11.970;2023-04-03T14:00:39;4.84;66.29
65207;SHT31;58477;48.072;11.970;2023-04-03T14:03:28;4.54;66.12
65207;SHT31;58477;48.072;11.970;2023-04-03T14:05:54;4.73;67.40
65207;SHT31;58477;48.072;11.970;2023-04-03T14:08:20;5.01;65.50
65207;SHT31;58477;48.072;11.970;2023-04-03T14:10:46;5.24;66.59
65207;SHT31;58477;48.072;11.970;2023-04-03T14:13:17;5.49;66.84
65207;SHT31;58477;48.072;11.970;2023-04-03T14:15:43;5.77;66.09
65207;SHT31;58477;48.072;11.970;2023-04-03T14:18:12;5.85;65.05
65207;SHT31;58477;48.072;11.970;2023-04-03T14:20:37;5.38;66.68
65207;SHT31;58477;48.072;11.970;2023-04-03T14:23:02;5.18;65.08
65207;SHT31;58477;48.072;11.970;2023-04-03T14:25:28;5.21;66.41
65207;SHT31;58477;48.072;11.970;2023-04-03T14:27:54;5.35;65.14
65207;SHT31;58477;48.072;11.970;2023-04-03T14:30:29;5.12;67.65
65207;SHT31;58477;48.072;11.970;2023-04-03T14:32:55;5.24;64.68
65207;SHT31;58477;48.072;11.970;2023-04-03T14:35:21;5.01;64.88
65207;SHT31;58477;48.072;11.970;2023-04-03T14:37:48;4.85;63.76
65207;SHT31;58477;48.072;11.970;2023-04-03T14:40:25;4.76;65.02
65207;SHT31;58477;48.072;11.970;2023-04-03T14:42:51;4.73;64.11
65207;SHT31;58477;48.072;11.970;2023-04-03T14:45:21;4.92;62.84
65207;SHT31;58477;48.072;11.970;2023-04-03T14:47:50;4.94;63.53
65207;SHT31;58477;48.072;11.970;2023-04-03T14:50:24;5.00;65.41
65207;SHT31;58477;48.072;11.970;2023-04-03T14:52:53;5.21;63.99
65207;SHT31;58477;48.072;11.970;2023-04-03T14:55:21;5.11;61.82
65207;SHT31;58477;48.072;11.970;2023-04-03T14:57:47;5.22;61.74
65207;SHT31;58477;48.072;11.970;2023-04-03T15:00:20;5.04;61.54
65207;SHT31;58477;48.072;11.970;2023-04-03T15:02:47;5.28;61.01
65207;SHT31;58477;48.072;11.970;2023-04-03T15:05:13;5.12;60.67
65207;SHT31;58477;48.072;11.970;2023-04-03T15:07:42;5.12;59.86
65207;SHT31;58477;48.072;11.970;2023-04-03T15:10:20;5.25;60.90
65207;SHT31;58477;48.072;11.970;2023-04-03T15:12:47;5.25;60.98
65207;SHT31;58477;48.072;11.970;2023-04-03T15:15:14;4.94;61.38
65207;SHT31;58477;48.072;11.970;2023-04-03T15:17:41;5.27;61.50
65207;SHT31;58477;48.072;11.970;2023-04-03T15:20:17;5.58;60.56
65207;SHT31;58477;48.072;11.970;2023-04-03T15:22:44;5.63;59.54
65207;SHT31;58477;48.072;11.970;2023-04-03T15:25:10;5.44;60.05
65207;SHT31;58477;48.072;11.970;2023-04-03T15:27:38;5.42;57.94
65207;SHT31;58477;48.072;11.970;2023-04-03T15:30:15;5.59;59.68
65207;SHT31;58477;48.072;11.970;2023-04-03T15:32:41;5.52;59.57
65207;SHT31;58477;48.072;11.970;2023-04-03T15:35:07;5.55;59.36
65207;SHT31;58477;48.072;11.970;2023-04-03T15:37:34;5.36;60.54
65207;SHT31;58477;48.072;11.970;2023-04-03T15:40:03;5.54;58.10
65207;SHT31;58477;48.072;11.970;2023-04-03T15:42:32;5.45;56.55
65207;SHT31;58477;48.072;11.970;2023-04-03T15:45:03;5.36;59.06
65207;SHT31;58477;48.072;11.970;2023-04-03T15:47:31;5.28;60.51
65207;SHT31;58477;48.072;11.970;2023-04-03T15:50:00;5.12;58.67
65207;SHT31;58477;48.072;11.970;2023-04-03T15:52:32;5.24;58.94
65207;SHT31;58477;48.072;11.970;2023-04-03T15:54:58;5.05;59.70
65207;SHT31;58477;48.072;11.970;2023-04-03T15:57:25;4.90;58.44
65207;SHT31;58477;48.072;11.970;2023-04-03T15:59:54;4.83;59.19
65207;SHT31;58477;48.072;11.970;2023-04-03T16:02:26;4.67;60.01
65207;SHT31;58477;48.072;11.970;2023-04-03T16:04:56;4.59;61.00
65207;SHT31;58477;48.072;11.970;2023-04-03T16:07:26;4.59;62.53
65207;SHT31;58477;48.072;11.970;2023-04-03T16:09:55;4.39;63.27
65207;SHT31;58477;48.072;11.970;2023-04-03T16:12:22;4.39;62.84
65207;SHT31;58477;48.072;11.970;2023-04-03T16:14:51;4.47;61.86
65207;SHT31;58477;48.072;11.970;2023-04-03T16:17:19;4.26;62.74
65207;SHT31;58477;48.072;11.970;2023-04-03T16:19:46;4.22;63.30
65207;SHT31;58477;48.072;11.970;2023-04-03T16:22:14;4.05;64.01
65207;SHT31;58477;48.072;11.970;2023-04-03T16:24:43;3.99;64.14
65207;SHT31;58477;48.072;11.970;2023-04-03T16:27:10;3.88;64.65
65207;SHT31;58477;48.072;11.970;2023-04-03T16:29:36;3.95;63.53
65207;SHT31;58477;48.072;11.970;2023-04-03T16:35:23;3.81;63.54
65207;SHT31;58477;48.072;11.970;2023-04-03T16:37:49;3.83;65.02
65207;SHT31;58477;48.072;11.970;2023-04-03T16:40:15;3.88;66.95
65207;SHT31;58477;48.072;11.970;2023-04-03T16:42:41;3.65;66.13
65207;SHT31;58477;48.072;11.970;2023-04-03T16:45:07;3.57;66.08
65207;SHT31;58477;48.072;11.970;2023-04-03T16:47:33;3.51;66.17
65207;SHT31;58477;48.072;11.970;2023-04-03T16:49:58;3.55;65.65
65207;SHT31;58477;48.072;11.970;2023-04-03T16:52:23;3.48;65.96
65207;SHT31;58477;48.072;11.970;2023-04-03T16:54:49;3.38;65.80
65207;SHT31;58477;48.072;11.970;2023-04-03T16:57:16;3.28;64.75
65207;SHT31;58477;48.072;11.970;2023-04-03T16:59:42;3.35;65.68
65207;SHT31;58477;48.072;11.970;2023-04-03T17:02:07;3.37;66.25
65207;SHT31;58477;48.072;11.970;2023-04-03T17:04:33;3.37;66.24
65207;SHT31;58477;48.072;11.970;2023-04-03T17:06:58;3.30;66.08
65207;SHT31;58477;48.072;11.970;2023-04-03T17:09:25;3.26;66.04
65207;SHT31;58477;48.072;11.970;2023-04-03T17:11:50;3.13;66.61
65207;SHT31;58477;48.072;11.970;2023-04-03T17:14:16;3.06;65.73
65207;SHT31;58477;48.072;11.970;2023-04-03T17:16:42;3.06;66.38
65207;SHT31;58477;48.072;11.970;2023-04-03T17:19:07;2.94;66.49
65207;SHT31;58477;48.072;11.970;2023-04-03T17:21:33;2.96;65.80
65207;SHT31;58477;48.072;11.970;2023-04-03T17:24:01;3.01;66.59
65207;SHT31;58477;48.072;11.970;2023-04-03T17:26:27;2.93;66.57
65207;SHT31;58477;48.072;11.970;2023-04-03T17:28:53;2.87;66.55
65207;SHT31;58477;48.072;11.970;2023-04-03T17:31:19;2.79;65.75
65207;SHT31;58477;48.072;11.970;2023-04-03T17:33:44;2.82;65.84
65207;SHT31;58477;48.072;11.970;2023-04-03T17:36:10;2.89;65.98